Time;durP1;ratioP1;P1;durP2;ratioP2;P2;SDS_P1;SDS_P2;PMS_P1;PMS_P2;Temp;Humidity;BMP_temperature;BMP_pressure;BME280_temperature;BME280_humidity;BME280_pressure;Samples;Min_cycle;Max_cycle;Signal;HPM_P1;HPM_P2
2022/02/10 00:20:37;;;;;;;;;48.50;39.50;;;;;10.19;64.95;102113.66;5039705;28;45427;-82
2022/02/10 00:23:26;;;;;;;;;44.75;38.75;;;;;10.19;64.85;102103.13;5041818;28;45515;-82
2022/02/10 00:34:17;;;;;;;;;51.25;42.00;;;;;10.22;64.83;102104.88;5041591;28;45571;-81
2022/02/10 00:42:05;;;;;;;;;41.25;33.75;;;;;10.24;64.80;102110.97;5031675;28;46093;-82
2022/02/10 00:44:30;;;;;;;;;47.50;38.50;;;;;10.26;65.01;102110.94;5039684;28;45206;-82
2022/02/10 00:46:56;;;;;;;;;44.75;36.00;;;;;10.26;65.08;102124.97;5034800;28;45155;-82
2022/02/10 00:49:21;;;;;;;;;46.25;39.00;;;;;10.26;64.79;102119.72;5041143;28;45261;-83
2022/02/10 00:51:48;;;;;;;;;48.75;37.50;;;;;10.22;64.81;102110.13;5038895;28;45515;-82
2022/02/10 00:54:18;;;;;;;;;46.00;36.00;;;;;10.21;64.73;102114.50;5037675;28;45409;-82
2022/02/10 00:56:44;;;;;;;;;47.25;36.25;;;;;10.22;64.70;102116.22;5040794;28;45334;-82
2022/02/10 01:31:41;;;;;;;;;50.75;39.25;;;;;10.28;64.92;102138.97;5033852;28;45285;-89
2022/02/10 01:34:07;;;;;;;;;47.75;37.25;;;;;10.26;64.96;102139.84;5031505;28;46188;-89
2022/02/10 01:36:33;;;;;;;;;46.00;35.50;;;;;10.23;65.09;102143.38;5040316;28;45181;-89
2022/02/10 01:38:58;;;;;;;;;50.50;38.75;;;;;10.23;65.31;102146.00;5040343;28;45347;-91
2022/02/10 02:05:48;;;;;;;;;38.00;33.50;;;;;10.01;65.51;102130.44;5039590;28;45428;-88
2022/02/10 02:08:15;;;;;;;;;46.50;36.75;;;;;9.99;65.77;102135.72;5039947;28;45461;-83
2022/02/10 02:10:41;;;;;;;;;48.50;36.25;;;;;9.99;65.82;102135.72;5039486;28;45515;-83
2022/02/10 02:13:06;;;;;;;;;44.50;34.25;;;;;9.98;65.57;102133.06;5045378;28;45379;-85
2022/02/10 02:15:34;;;;;;;;;43.00;35.75;;;;;9.99;65.95;102140.09;5037851;28;47423;-89
2022/02/10 02:18:07;;;;;;;;;48.25;38.50;;;;;10.01;65.55;102141.81;5039333;28;45464;-90
2022/02/10 02:20:33;;;;;;;;;47.50;36.00;;;;;10.00;65.61;102137.44;5036568;28;45529;-87
2022/02/10 02:22:58;;;;;;;;;46.25;37.50;;;;;9.97;65.80;102141.84;5040289;28;45449;-85
2022/02/10 02:25:24;;;;;;;;;51.00;39.25;;;;;9.96;65.64;102142.72;5038905;28;45344;-86
2022/02/10 02:27:56;;;;;;;;;45.25;36.75;;;;;9.98;65.81;102143.56;5020152;28;45452;-85
2022/02/10 02:30:34;;;;;;;;;44.50;34.50;;;;;9.94;65.67;102144.50;5021878;28;45362;-87
2022/02/10 03:04:25;;;;;;;;;42.75;34.75;;;;;9.90;66.66;102134.00;5039623;28;45329;-85
2022/02/10 03:06:50;;;;;;;;;47.25;37.00;;;;;9.92;66.10;102138.38;5027556;28;46805;-85
2022/02/10 03:09:22;;;;;;;;;45.50;36.75;;;;;9.84;66.28;102136.69;5026628;28;45206;-84
2022/02/10 03:11:48;;;;;;;;;37.75;33.25;;;;;9.79;66.17;102128.84;5047645;28;45233;-85
2022/02/10 03:14:18;;;;;;;;;41.50;33.25;;;;;9.85;66.61;102135.78;5039368;28;45366;-84
2022/02/10 04:15:45;;;;;;;;;40.50;31.50;;;;;9.56;65.08;102157.88;5041411;28;45666;-86
2022/02/10 04:28:56;;;;;;;;;39.25;31.25;;;;;9.60;65.05;102166.59;5034610;28;45243;-85
2022/02/10 04:31:59;;;;;;;;;41.50;33.00;;;;;9.57;65.25;102168.38;5035430;28;45431;-86
2022/02/10 04:37:43;;;;;;;;;34.25;28.75;;;;;9.51;64.83;102171.00;5033519;28;45729;-86
2022/02/10 05:00:04;;;;;;;;;39.50;33.50;;;;;9.23;66.04;102190.38;4979156;28;45341;-87
2022/02/10 05:34:08;;;;;;;;;38.75;32.25;;;;;9.16;65.60;102186.03;5040659;28;45736;-83
2022/02/10 05:36:35;;;;;;;;;45.00;32.50;;;;;9.19;65.36;102191.28;5039441;28;45942;-83
2022/02/10 05:39:11;;;;;;;;;37.00;30.50;;;;;9.16;65.61;102190.44;5040974;28;45368;-84
2022/02/10 05:54:37;;;;;;;;;38.50;30.25;;;;;9.17;65.55;102205.28;5040411;28;45931;-87
2022/02/10 06:47:04;;;;;;;;;38.25;30.25;;;;;9.32;64.97;102233.22;5037523;28;45256;-79
2022/02/10 06:51:26;;;;;;;;;29.50;24.75;;;;;9.34;65.19;102236.69;5034116;28;45410;-79
2022/02/10 06:54:05;;;;;;;;;37.25;30.75;;;;;9.42;65.44;102241.94;5040047;28;45453;-79
2022/02/10 07:10:11;;;;;;;;;39.25;34.00;;;;;9.41;64.89;102255.91;5039414;28;45456;-79
2022/02/10 07:14:03;;;;;;;;;40.00;33.50;;;;;9.39;64.77;102255.94;5044890;28;45478;-79
2022/02/10 07:48:15;;;;;;;;;41.00;34.00;;;;;9.55;64.52;102255.88;5032635;28;45426;-78
2022/02/10 08:55:55;;;;;;;;;45.75;35.25;;;;;9.79;64.65;102306.53;5038904;28;45481;-79
2022/02/10 09:06:12;;;;;;;;;39.50;34.00;;;;;9.84;64.23;102331.03;5032037;28;45455;-80
2022/02/10 09:16:55;;;;;;;;;49.25;37.50;;;;;9.86;64.13;102318.75;5038855;28;45391;-80
2022/02/10 09:47:30;;;;;;;;;35.75;31.25;;;;;10.02;63.55;102323.94;5034750;28;45447;-79
2022/02/10 10:02:09;;;;;;;;;35.25;31.75;;;;;10.68;62.74;102349.84;5040335;28;45363;-79
2022/02/10 10:04:46;;;;;;;;;35.50;29.50;;;;;10.69;62.72;102356.88;5038544;28;45932;-79
2022/02/10 10:18:41;;;;;;;;;41.00;33.00;;;;;10.69;62.25;102356.88;5037529;28;45446;-80
2022/02/10 10:54:23;;;;;;;;;31.25;26.00;;;;;11.12;61.56;102367.91;5028516;28;45284;-82
2022/02/10 10:56:52;;;;;;;;;29.50;26.25;;;;;11.19;61.39;102374.84;5035290;28;45370;-82
2022/02/10 11:38:16;;;;;;;;;23.25;21.00;;;;;11.74;60.37;102334.78;5038179;28;45342;-82
2022/02/10 11:40:55;;;;;;;;;29.00;24.75;;;;;11.74;60.50;102336.56;5035446;28;46184;-82
2022/02/10 11:46:42;;;;;;;;;25.75;22.00;;;;;11.67;59.95;102328.75;5029826;28;45505;-82
2022/02/10 12:01:41;;;;;;;;;23.25;20.50;;;;;11.87;59.81;102295.13;5034774;28;45485;-82
2022/02/10 13:49:22;;;;;;;;;15.75;15.75;;;;;11.98;60.75;102192.19;5039712;28;45838;-82
2022/02/10 14:13:16;;;;;;;;;15.25;13.00;;;;;12.31;61.59;102189.06;5047209;28;45484;-82
2022/02/10 14:18:28;;;;;;;;;19.75;18.25;;;;;12.36;61.82;102185.47;5038963;28;45341;-82
2022/02/10 14:21:10;;;;;;;;;18.00;17.25;;;;;12.38;61.85;102175.75;5039794;28;45848;-82
2022/02/10 14:26:14;;;;;;;;;18.25;18.00;;;;;12.46;61.16;102185.31;5039749;28;45470;-83
2022/02/10 14:28:40;;;;;;;;;18.25;17.50;;;;;12.46;61.79;102173.00;5038962;28;45422;-82
2022/02/10 14:31:05;;;;;;;;;17.00;16.00;;;;;12.49;61.70;102180.00;5039187;28;45430;-83
2022/02/10 14:33:34;;;;;;;;;20.50;17.50;;;;;12.51;60.86;102172.03;5021532;28;45394;-82
2022/02/10 14:36:07;;;;;;;;;20.00;18.50;;;;;12.53;61.23;102164.97;5021526;28;45388;-83
2022/02/10 15:15:47;;;;;;;;;19.25;17.50;;;;;12.71;59.34;102148.81;5013287;28;45769;-82
2022/02/10 15:50:03;;;;;;;;;18.00;15.75;;;;;12.67;57.81;102152.38;5036907;28;45422;-82
2022/02/10 15:55:53;;;;;;;;;15.00;13.75;;;;;12.67;58.09;102160.28;5039495;28;45564;-83
2022/02/10 16:17:13;;;;;;;;;19.00;15.00;;;;;12.69;57.76;102139.19;5041108;28;46095;-83
2022/02/10 16:19:41;;;;;;;;;18.50;14.25;;;;;12.69;58.09;102131.28;5040330;28;45405;-83
2022/02/10 16:24:50;;;;;;;;;16.75;14.25;;;;;12.66;57.39;102133.97;5040163;28;45389;-83
2022/02/10 16:27:28;;;;;;;;;22.00;16.25;;;;;12.66;58.13;102132.19;5018710;28;48408;-82
2022/02/10 16:30:07;;;;;;;;;15.00;15.00;;;;;12.64;57.84;102123.44;5038012;28;46253;-82
2022/02/10 16:32:34;;;;;;;;;16.00;13.75;;;;;12.62;58.04;102125.22;5029291;28;45635;-82
2022/02/10 16:35:03;;;;;;;;;17.50;12.50;;;;;12.56;56.98;102125.34;5040173;28;45273;-82
2022/02/10 16:37:28;;;;;;;;;14.00;13.50;;;;;12.56;57.30;102123.59;5023378;28;47677;-82
2022/02/10 16:39:54;;;;;;;;;15.75;15.25;;;;;12.56;57.76;102123.59;5041494;28;45751;-82
2022/02/10 16:42:20;;;;;;;;;17.00;14.00;;;;;12.57;57.47;102127.94;5032063;28;45376;-82
2022/02/10 16:44:48;;;;;;;;;13.50;12.50;;;;;12.53;57.45;102125.41;5041337;28;45538;-82
2022/02/10 16:47:14;;;;;;;;;16.75;11.75;;;;;12.54;57.41;102119.25;5041550;28;46082;-82
2022/02/10 16:49:46;;;;;;;;;14.75;12.75;;;;;12.52;57.55;102119.25;5023698;28;45312;-82
2022/02/10 16:52:19;;;;;;;;;16.25;16.25;;;;;12.50;57.62;102126.31;5040844;28;45493;-82
2022/02/10 16:54:46;;;;;;;;;12.50;12.50;;;;;12.51;57.57;102133.34;5041387;28;45519;-82
2022/02/10 16:59:52;;;;;;;;;14.50;13.00;;;;;12.53;57.70;102133.31;5041084;28;45729;-82
2022/02/10 17:28:50;;;;;;;;;13.75;13.50;;;;;12.34;58.37;102152.13;5040259;28;45403;-82
2022/02/10 17:34:04;;;;;;;;;15.00;15.00;;;;;12.34;59.29;102166.19;5041352;28;45355;-82
2022/02/10 17:36:35;;;;;;;;;18.50;16.50;;;;;12.31;59.47;102163.59;5021162;28;46174;-82
2022/02/10 17:44:30;;;;;;;;;15.25;13.00;;;;;12.23;60.14;102165.47;5040268;28;45479;-82
2022/02/10 17:51:26;;;;;;;;;16.50;15.25;;;;;12.19;59.46;102176.97;5040641;28;45596;-82
2022/02/10 17:52:33;;;;;;;;;15.00;13.25;;;;;11.99;61.15;102210.63;5040763;28;45915;-82
2022/02/10 17:54:59;;;;;;;;;14.00;13.00;;;;;11.80;63.39;102212.69;5040817;28;45477;-82
2022/02/10 17:57:25;;;;;;;;;10.25;10.25;;;;;11.51;63.02;102232.38;5040729;28;45434;-82
2022/02/10 17:59:51;;;;;;;;;8.50;8.00;;;;;11.29;63.91;102237.88;5031039;28;46083;-82
2022/02/10 18:02:16;;;;;;;;;8.50;7.50;;;;;11.08;64.93;102253.06;5014604;28;45402;-81
2022/02/10 18:04:41;;;;;;;;;7.00;7.00;;;;;10.94;64.48;102254.06;5040460;28;45479;-82
2022/02/10 18:07:09;;;;;;;;;6.50;5.00;;;;;10.82;65.10;102254.16;5040564;28;45325;-82
2022/02/10 18:17:17;;;;;;;;;7.50;7.50;;;;;10.23;65.83;102275.66;5039761;28;45428;-82
2022/02/10 18:19:50;;;;;;;;;12.00;9.25;;;;;10.08;66.04;102275.72;5040109;28;46636;-82
2022/02/10 18:24:56;;;;;;;;;10.00;9.25;;;;;9.88;66.51;102288.09;5040248;28;45205;-82
2022/02/10 18:27:35;;;;;;;;;11.25;10.00;;;;;9.79;66.30;102293.41;5020021;28;45476;-82
2022/02/10 18:30:15;;;;;;;;;11.75;9.50;;;;;9.72;66.68;102303.06;5039981;28;45876;-81
2022/02/10 19:07:51;;;;;;;;;6.75;6.00;;;;;8.92;66.16;102347.84;5035829;28;45694;-85
2022/02/10 19:10:21;;;;;;;;;4.75;4.75;;;;;8.95;66.31;102357.44;5033253;28;45879;-85
2022/02/10 19:12:51;;;;;;;;;8.75;6.00;;;;;8.97;66.44;102356.56;5024782;28;47057;-85
2022/02/10 19:17:44;;;;;;;;;7.25;7.00;;;;;8.97;66.32;102382.81;5034676;28;45513;-84
2022/02/10 19:20:10;;;;;;;;;3.00;3.00;;;;;8.89;64.55;102385.41;5038426;28;45419;-85
2022/02/10 19:22:35;;;;;;;;;4.00;4.00;;;;;8.76;65.18;102371.44;5038350;28;46200;-85
2022/02/10 19:25:01;;;;;;;;;5.00;2.50;;;;;8.74;64.79;102380.19;5015261;28;45271;-84
2022/02/10 19:27:26;;;;;;;;;1.00;1.00;;;;;8.69;64.52;102380.16;5042383;28;45414;-85
2022/02/10 19:29:57;;;;;;;;;1.75;1.75;;;;;8.66;64.40;102390.66;5042444;28;45202;-86
2022/02/10 19:32:25;;;;;;;;;0.75;0.75;;;;;8.59;64.09;102389.78;5041376;28;45565;-84
2022/02/10 19:34:53;;;;;;;;;2.00;2.00;;;;;8.50;64.55;102392.31;5018958;28;45908;-84
2022/02/10 19:37:19;;;;;;;;;2.50;1.75;;;;;8.43;64.93;102394.03;5034622;28;45232;-84
2022/02/10 19:39:50;;;;;;;;;2.00;2.00;;;;;8.40;64.90;102401.88;5011359;28;46897;-84
2022/02/10 19:42:15;;;;;;;;;3.50;1.75;;;;;8.40;65.43;102405.38;5023482;28;47342;-85
2022/02/10 19:44:41;;;;;;;;;3.50;3.50;;;;;8.42;65.65;102405.41;5019788;28;45509;-85
2022/02/10 19:47:06;;;;;;;;;3.25;3.25;;;;;8.43;66.04;102396.66;5036621;28;46389;-85
2022/02/10 19:49:32;;;;;;;;;2.50;2.50;;;;;8.44;65.93;102408.91;5038630;28;45414;-84
2022/02/10 19:51:57;;;;;;;;;5.00;5.00;;;;;8.39;66.14;102414.16;5036214;28;45414;-84
2022/02/10 19:54:30;;;;;;;;;6.00;6.00;;;;;8.36;65.53;102414.13;5042679;28;45325;-85
2022/02/10 19:56:57;;;;;;;;;24.50;23.75;;;;;8.38;66.11;102422.84;5041392;28;45784;-85
2022/02/10 19:59:28;;;;;;;;;15.25;15.25;;;;;8.41;66.68;102416.75;5034361;28;45490;-84
2022/02/10 20:01:54;;;;;;;;;30.00;28.00;;;;;8.43;65.99;102412.38;5041030;28;45699;-85
2022/02/10 20:04:21;;;;;;;;;26.50;22.50;;;;;8.42;66.45;102421.13;5040415;28;45154;-85
2022/02/10 20:06:47;;;;;;;;;28.75;27.50;;;;;8.40;66.27;102428.97;5041281;28;45430;-85
2022/02/10 20:09:14;;;;;;;;;17.75;15.25;;;;;8.39;66.57;102421.13;5041932;28;45318;-85
2022/02/10 20:11:39;;;;;;;;;7.50;6.00;;;;;8.35;66.19;102427.19;5042055;28;46595;-85
2022/02/10 20:14:05;;;;;;;;;6.75;6.50;;;;;8.31;66.35;102418.47;5040960;28;45666;-84
2022/02/10 20:16:31;;;;;;;;;5.50;5.50;;;;;8.32;66.47;102426.31;5033746;28;45430;-84
2022/02/10 20:18:56;;;;;;;;;9.00;7.75;;;;;8.33;67.14;102435.06;5040516;28;45359;-85
2022/02/10 20:21:21;;;;;;;;;7.50;7.50;;;;;8.31;66.73;102432.44;5028921;28;45440;-84
2022/02/10 20:23:47;;;;;;;;;7.25;7.00;;;;;8.35;67.38;102432.44;5036619;28;45443;-84
2022/02/10 20:26:13;;;;;;;;;5.00;4.00;;;;;8.39;67.22;102436.84;5038071;28;45299;-84
2022/02/10 20:28:39;;;;;;;;;4.00;4.00;;;;;8.37;66.92;102443.81;5033202;28;45471;-84
2022/02/10 20:31:07;;;;;;;;;5.00;4.25;;;;;8.30;67.04;102446.41;5032075;28;46412;-84
2022/02/10 20:33:33;;;;;;;;;5.50;4.75;;;;;8.24;67.03;102450.75;5040860;28;45272;-84
2022/02/10 20:36:01;;;;;;;;;4.00;4.00;;;;;8.21;66.61;102441.13;5039927;28;45505;-85
2022/02/10 20:38:28;;;;;;;;;4.50;4.00;;;;;8.19;67.08;102441.13;5033461;28;45493;-84
2022/02/10 20:40:58;;;;;;;;;7.50;5.00;;;;;8.24;67.32;102448.13;5039917;28;45387;-85
2022/02/10 20:43:24;;;;;;;;;5.75;4.25;;;;;8.21;66.95;102449.88;5037774;28;45210;-85
2022/02/10 20:45:55;;;;;;;;;4.75;4.75;;;;;8.20;66.61;102458.59;5039207;28;45512;-84
2022/02/10 20:48:23;;;;;;;;;5.00;5.00;;;;;8.21;66.86;102460.34;5028952;28;45499;-85
2022/02/10 20:50:54;;;;;;;;;6.75;5.00;;;;;8.21;66.63;102447.25;5037663;28;45351;-84
2022/02/10 20:53:19;;;;;;;;;4.00;4.00;;;;;8.26;66.45;102441.16;5041696;28;45702;-84
2022/02/10 20:55:45;;;;;;;;;5.75;5.75;;;;;8.33;66.59;102449.03;5039759;28;45420;-84
2022/02/10 20:58:10;;;;;;;;;5.00;5.00;;;;;8.37;66.03;102441.22;5040366;28;45429;-85
2022/02/10 21:00:35;;;;;;;;;7.75;6.75;;;;;8.42;66.27;102452.59;5040373;28;46333;-84
2022/02/10 21:03:01;;;;;;;;;9.00;7.00;;;;;8.43;65.84;102467.41;5039825;28;45469;-85
2022/02/10 21:05:38;;;;;;;;;8.00;6.75;;;;;8.42;65.44;102471.78;5041549;28;45237;-85
2022/02/10 21:10:29;;;;;;;;;9.00;7.25;;;;;8.37;66.18;102481.34;5043653;28;45523;-84
2022/02/10 21:12:55;;;;;;;;;5.00;5.00;;;;;8.32;65.48;102488.34;5041076;28;45403;-85
2022/02/10 21:15:27;;;;;;;;;6.50;5.75;;;;;8.27;66.18;102479.59;5045385;28;45394;-85
2022/02/10 21:17:57;;;;;;;;;4.75;4.75;;;;;8.25;65.49;102469.09;5036829;28;45197;-85
2022/02/10 21:20:25;;;;;;;;;5.75;5.25;;;;;8.21;65.69;102483.03;5041096;28;46194;-84
2022/02/10 21:23:00;;;;;;;;;7.50;7.50;;;;;8.17;65.29;102486.53;5041202;28;45270;-85
2022/02/10 21:25:32;;;;;;;;;7.00;5.50;;;;;8.15;65.68;102486.50;5041141;28;45479;-84
2022/02/10 21:27:57;;;;;;;;;4.50;4.50;;;;;8.11;65.26;102482.13;5039643;28;45501;-85
2022/02/10 21:30:23;;;;;;;;;7.75;6.50;;;;;8.09;65.76;102489.09;5040473;28;45434;-85
2022/02/10 21:32:52;;;;;;;;;6.25;5.50;;;;;8.10;65.57;102482.97;5040226;28;45771;-84
2022/02/10 21:38:12;;;;;;;;;6.00;6.00;;;;;8.02;65.71;102489.94;5039950;28;45459;-85
2022/02/10 22:04:56;;;;;;;;;6.75;5.50;;;;;8.09;65.51;102499.56;5040472;28;45927;-82
2022/02/10 22:16:18;;;;;;;;;7.75;6.25;;;;;8.16;65.38;102508.34;5040352;28;46204;-83
2022/02/10 22:20:07;;;;;;;;;4.50;4.50;;;;;8.07;65.19;102512.66;5033479;28;45419;-82
2022/02/10 22:22:37;;;;;;;;;5.00;4.25;;;;;8.06;64.88;102510.03;5040218;28;46176;-81
2022/02/10 22:25:08;;;;;;;;;7.00;4.50;;;;;8.06;65.51;102515.25;5035324;28;45232;-86
2022/02/10 22:27:38;;;;;;;;;6.25;4.00;;;;;8.10;65.92;102520.53;5009378;28;45474;-85
2022/02/10 22:30:11;;;;;;;;;5.00;4.75;;;;;8.17;64.88;102520.56;5039609;28;45356;-83
2022/02/10 22:35:28;;;;;;;;;5.50;5.00;;;;;8.18;65.22;102524.94;5024922;28;45693;-90
2022/02/10 22:37:56;;;;;;;;;5.00;4.50;;;;;8.22;64.94;102529.34;5040083;28;45297;-86
2022/02/10 22:40:40;;;;;;;;;6.50;5.00;;;;;8.18;65.27;102527.56;5039622;28;45258;-87
2022/02/10 22:43:06;;;;;;;;;4.00;4.00;;;;;8.16;64.91;102535.41;5040097;28;45500;-88
2022/02/10 22:45:31;;;;;;;;;4.75;4.75;;;;;8.12;64.63;102538.00;5033508;28;45230;-88
2022/02/10 22:47:57;;;;;;;;;4.00;4.00;;;;;8.10;64.74;102541.47;5039778;28;45486;-87
2022/02/10 22:50:22;;;;;;;;;4.25;4.25;;;;;8.03;64.71;102538.81;5039582;28;45477;-87
2022/02/10 22:52:47;;;;;;;;;7.25;7.00;;;;;8.02;64.69;102539.69;5021763;28;48228;-88
2022/02/10 22:55:13;;;;;;;;;6.75;5.25;;;;;8.00;64.86;102542.28;5021145;28;45728;-87
2022/02/10 22:57:39;;;;;;;;;5.00;5.00;;;;;7.98;65.11;102539.66;5039807;28;45349;-87
2022/02/10 23:00:08;;;;;;;;;7.00;5.75;;;;;7.98;65.59;102538.78;5039151;28;45228;-87
2022/02/10 23:02:34;;;;;;;;;7.50;7.00;;;;;7.96;65.55;102538.78;5039841;28;45402;-88
2022/02/10 23:04:59;;;;;;;;;6.75;6.75;;;;;7.99;65.66;102551.00;5038484;28;45339;-88
2022/02/10 23:07:26;;;;;;;;;9.75;8.25;;;;;8.00;65.14;102552.75;5021020;28;45561;-88
2022/02/10 23:10:03;;;;;;;;;10.00;6.00;;;;;8.02;65.37;102543.19;5039501;28;45224;-88
2022/02/10 23:12:29;;;;;;;;;6.00;5.50;;;;;8.01;65.16;102554.50;5050068;28;46183;-87
2022/02/10 23:14:55;;;;;;;;;8.75;7.00;;;;;8.00;65.09;102555.38;5024405;28;45382;-88
2022/02/10 23:17:20;;;;;;;;;7.00;6.00;;;;;7.95;65.31;102555.34;5039014;28;45295;-88
2022/02/10 23:19:45;;;;;;;;;9.00;6.75;;;;;7.94;65.47;102569.31;5039334;28;45244;-88
2022/02/10 23:22:11;;;;;;;;;7.00;7.00;;;;;7.93;65.26;102569.28;5038657;28;45386;-88
2022/02/10 23:24:36;;;;;;;;;12.25;9.00;;;;;7.91;65.50;102579.75;5039426;28;45380;-88
2022/02/10 23:27:02;;;;;;;;;7.25;7.25;;;;;7.90;65.53;102571.91;5027786;28;46002;-88
2022/02/10 23:29:27;;;;;;;;;12.00;10.25;;;;;7.88;65.28;102577.97;5008410;28;45460;-85
2022/02/10 23:31:52;;;;;;;;;11.50;7.75;;;;;7.82;65.38;102582.31;5039074;28;46199;-85
2022/02/10 23:34:18;;;;;;;;;10.50;10.00;;;;;7.75;65.07;102590.09;5035436;28;45486;-85
2022/02/10 23:36:50;;;;;;;;;8.75;7.25;;;;;7.76;65.71;102596.19;5034581;28;45404;-85
2022/02/10 23:39:26;;;;;;;;;11.50;11.50;;;;;7.70;65.73;102591.81;5039161;28;45464;-86
2022/02/10 23:44:44;;;;;;;;;10.50;10.00;;;;;7.73;65.48;102596.19;5038279;28;45281;-85
2022/02/10 23:47:17;;;;;;;;;13.75;10.75;;;;;7.68;65.24;102603.13;5027148;28;45506;-84
2022/02/10 23:49:42;;;;;;;;;11.50;11.00;;;;;7.63;65.61;102597.84;5038867;28;45213;-85
2022/02/10 23:52:09;;;;;;;;;13.50;12.00;;;;;7.62;65.54;102599.59;5038973;28;46225;-85
2022/02/10 23:54:37;;;;;;;;;13.25;11.75;;;;;7.61;65.12;102603.06;5038521;28;45384;-85
